Time;durP1;ratioP1;P1;durP2;ratioP2;P2;SDS_P1;SDS_P2;PMS_P1;PMS_P2;Temp;Humidity;BMP_temperature;BMP_pressure;BME280_temperature;BME280_humidity;BME280_pressure;Samples;Min_cycle;Max_cycle;Signal;HPM_P1;HPM_P2
2022/09/28 00:00:30;;;;;;;3.47;1.47;;;7.70;99.90;;;;;;5112064;28;20202;-66
2022/09/28 00:02:56;;;;;;;1.60;0.93;;;7.70;99.90;;;;;;5111533;28;20187;-66
2022/09/28 00:05:25;;;;;;;2.13;1.00;;;7.70;99.90;;;;;;5112272;28;20417;-66
2022/09/28 00:07:55;;;;;;;2.13;1.00;;;7.70;99.90;;;;;;5111966;28;20194;-66
2022/09/28 00:10:24;;;;;;;10.13;1.10;;;7.70;99.90;;;;;;5111669;28;20464;-66
2022/09/28 00:12:51;;;;;;;1.60;0.83;;;7.70;99.90;;;;;;5111070;28;20471;-66
2022/09/28 00:15:17;;;;;;;2.70;0.80;;;7.70;99.90;;;;;;5106914;28;20429;-66
2022/09/28 00:17:43;;;;;;;2.47;0.90;;;7.70;99.90;;;;;;5112623;28;20486;-66
2022/09/28 00:20:10;;;;;;;1.40;0.80;;;7.70;99.90;;;;;;5115667;28;20469;-66
2022/09/28 00:22:36;;;;;;;1.40;0.80;;;7.70;99.90;;;;;;5115163;28;20421;-67
2022/09/28 00:25:02;;;;;;;2.07;0.97;;;7.70;99.90;;;;;;5114975;28;20417;-66
2022/09/28 00:27:28;;;;;;;1.53;0.87;;;7.80;99.90;;;;;;5114301;28;20230;-66
2022/09/28 00:29:54;;;;;;;1.30;0.67;;;7.90;99.90;;;;;;5115251;28;20425;-66
2022/09/28 00:32:23;;;;;;;1.60;0.70;;;7.90;99.90;;;;;;5115156;28;20206;-66
2022/09/28 00:34:50;;;;;;;2.23;0.90;;;7.90;99.90;;;;;;5115499;28;20425;-67
2022/09/28 00:37:17;;;;;;;2.80;0.70;;;7.90;99.90;;;;;;5110376;28;20414;-66
2022/09/28 00:39:43;;;;;;;2.80;0.90;;;8.00;99.90;;;;;;5114921;28;20413;-66
2022/09/28 00:42:15;;;;;;;2.17;0.87;;;8.00;99.90;;;;;;5114820;28;20895;-66
2022/09/28 00:44:51;;;;;;;1.40;0.70;;;8.00;99.90;;;;;;5114763;27;20433;-66
2022/09/28 00:47:40;;;;;;;1.70;0.83;;;8.00;99.90;;;;;;5115082;28;20444;-66
2022/09/28 00:50:14;;;;;;;1.80;0.70;;;8.10;99.90;;;;;;5114943;28;20909;-66
2022/09/28 00:52:46;;;;;;;1.57;0.70;;;8.10;99.90;;;;;;5114611;28;20413;-66
2022/09/28 00:55:16;;;;;;;2.90;1.13;;;8.10;99.90;;;;;;5114755;28;20504;-66
2022/09/28 00:57:46;;;;;;;1.97;0.80;;;8.10;99.90;;;;;;5114532;28;21133;-66
2022/09/28 01:00:12;;;;;;;1.30;0.70;;;8.10;99.90;;;;;;5114642;27;20516;-66
2022/09/28 01:02:38;;;;;;;5.93;0.80;;;8.10;99.90;;;;;;5113757;27;20916;-66
2022/09/28 01:05:06;;;;;;;1.20;0.60;;;8.10;99.90;;;;;;5115001;28;20440;-66
2022/09/28 01:07:33;;;;;;;2.57;0.70;;;8.10;99.90;;;;;;5114693;28;20452;-66
2022/09/28 01:09:59;;;;;;;1.97;0.87;;;8.10;99.90;;;;;;5114521;28;20409;-66
2022/09/28 01:12:25;;;;;;;2.20;0.93;;;8.10;99.90;;;;;;5113799;28;20405;-66
2022/09/28 01:14:51;;;;;;;1.23;0.67;;;8.10;99.90;;;;;;5109521;28;20994;-66
2022/09/28 01:17:32;;;;;;;1.40;0.70;;;8.10;99.90;;;;;;5114328;28;20176;-65
2022/09/28 01:20:05;;;;;;;1.30;0.60;;;8.10;99.90;;;;;;5114638;28;20421;-65
2022/09/28 01:22:43;;;;;;;4.27;1.10;;;8.10;99.90;;;;;;5113856;28;20914;-66
2022/09/28 01:25:27;;;;;;;4.20;0.70;;;8.10;99.90;;;;;;5112750;28;20441;-66
2022/09/28 01:28:05;;;;;;;1.27;0.63;;;8.20;99.90;;;;;;5113814;28;20447;-66
2022/09/28 01:30:41;;;;;;;1.80;0.67;;;8.10;99.90;;;;;;5114351;28;20968;-66
2022/09/28 01:33:12;;;;;;;3.13;0.83;;;8.10;99.90;;;;;;5101662;28;20413;-65
2022/09/28 01:35:52;;;;;;;7.30;1.00;;;8.20;99.90;;;;;;5114057;28;20413;-66
2022/09/28 01:38:20;;;;;;;2.40;1.10;;;8.20;99.90;;;;;;5109459;28;20444;-65
2022/09/28 01:40:46;;;;;;;5.73;0.80;;;8.20;99.90;;;;;;5111756;27;20444;-66
2022/09/28 01:43:19;;;;;;;4.50;1.20;;;8.20;99.90;;;;;;5113228;28;20447;-66
2022/09/28 01:46:12;;;;;;;2.27;0.87;;;8.20;99.90;;;;;;5114007;28;20409;-66
2022/09/28 01:48:42;;;;;;;4.40;0.70;;;8.20;99.90;;;;;;5105465;28;20429;-65
2022/09/28 01:51:15;;;;;;;2.67;1.10;;;8.20;99.90;;;;;;5113887;28;20457;-66
2022/09/28 01:53:45;;;;;;;10.43;1.07;;;8.10;99.90;;;;;;5113239;28;20439;-66
2022/09/28 01:56:17;;;;;;;1.50;0.90;;;8.10;99.90;;;;;;5113943;28;20454;-66
2022/09/28 01:59:06;;;;;;;2.90;0.83;;;8.10;99.90;;;;;;5113320;28;20452;-66
2022/09/28 02:02:08;;;;;;;1.60;0.87;;;8.10;99.90;;;;;;5113230;28;20425;-66
2022/09/28 02:05:04;;;;;;;1.93;0.70;;;8.10;99.90;;;;;;5100081;28;20432;-66
2022/09/28 02:07:59;;;;;;;3.87;0.70;;;8.10;99.90;;;;;;5098400;28;20923;-66
2022/09/28 02:10:42;;;;;;;3.23;1.30;;;8.20;99.90;;;;;;5095098;28;20508;-66
2022/09/28 02:13:15;;;;;;;1.70;1.00;;;8.20;99.90;;;;;;5112178;28;20442;-66
2022/09/28 02:16:01;;;;;;;2.70;0.90;;;8.20;99.90;;;;;;5108555;28;20498;-65
2022/09/28 02:18:27;;;;;;;10.63;1.03;;;8.20;99.90;;;;;;5100112;28;20482;-66
2022/09/28 02:21:03;;;;;;;2.93;1.13;;;8.20;99.90;;;;;;5113218;28;20490;-66
2022/09/28 02:23:31;;;;;;;1.50;0.70;;;8.20;99.90;;;;;;5112485;28;20274;-66
2022/09/28 02:26:05;;;;;;;2.87;1.53;;;8.30;99.90;;;;;;5111955;28;20434;-66
2022/09/28 02:28:31;;;;;;;3.33;1.33;;;8.30;99.90;;;;;;5112873;28;20888;-66
2022/09/28 02:30:56;;;;;;;1.43;0.73;;;8.30;99.90;;;;;;5113141;28;20536;-66
2022/09/28 02:33:42;;;;;;;6.13;1.33;;;8.30;99.90;;;;;;5112407;28;20651;-66
2022/09/28 02:36:09;;;;;;;9.40;1.47;;;8.30;99.90;;;;;;5113312;28;20179;-66
2022/09/28 02:38:36;;;;;;;1.50;0.77;;;8.30;99.90;;;;;;5108183;28;20414;-66
2022/09/28 02:41:13;;;;;;;1.60;1.00;;;8.30;99.90;;;;;;5112324;28;20425;-66
2022/09/28 02:43:51;;;;;;;6.50;1.07;;;8.30;99.90;;;;;;5112168;28;20789;-66
2022/09/28 02:46:35;;;;;;;6.43;1.20;;;8.30;99.90;;;;;;5113337;28;20425;-66
2022/09/28 02:49:04;;;;;;;12.30;1.20;;;8.30;99.90;;;;;;5112617;28;20417;-66
2022/09/28 02:51:48;;;;;;;2.83;1.10;;;8.30;99.90;;;;;;5112388;28;20780;-66
2022/09/28 02:54:22;;;;;;;8.20;1.03;;;8.30;99.90;;;;;;5100364;28;20414;-66
2022/09/28 02:57:29;;;;;;;1.90;0.90;;;8.30;99.90;;;;;;5112810;28;20948;-66
2022/09/28 03:00:06;;;;;;;3.20;0.90;;;8.40;99.90;;;;;;5069892;28;20433;-66
2022/09/28 03:02:50;;;;;;;1.73;0.77;;;8.40;99.90;;;;;;5112057;28;20926;-66
2022/09/28 03:05:30;;;;;;;2.27;1.00;;;8.30;99.90;;;;;;5112570;28;20459;-66
2022/09/28 03:08:12;;;;;;;14.10;1.87;;;8.30;99.90;;;;;;5112415;28;20417;-66
2022/09/28 03:10:44;;;;;;;4.70;0.80;;;8.30;99.90;;;;;;5112178;28;20493;-66
2022/09/28 03:13:12;;;;;;;1.33;0.73;;;8.40;99.90;;;;;;5111365;28;20441;-66
2022/09/28 03:15:39;;;;;;;1.70;1.27;;;8.30;99.90;;;;;;5112382;28;20426;-66
2022/09/28 03:18:04;;;;;;;2.73;1.20;;;8.40;99.90;;;;;;5111967;28;21335;-66
2022/09/28 03:20:32;;;;;;;1.70;0.70;;;8.40;99.90;;;;;;5112507;28;20480;-66
2022/09/28 03:22:57;;;;;;;3.77;0.73;;;8.40;99.90;;;;;;5112074;28;20194;-65
2022/09/28 03:25:23;;;;;;;2.30;1.33;;;8.40;99.90;;;;;;5110985;28;20426;-65
2022/09/28 03:27:49;;;;;;;3.30;0.80;;;8.40;99.90;;;;;;5111901;28;20191;-65
2022/09/28 03:30:14;;;;;;;3.43;1.43;;;8.40;99.90;;;;;;5112500;28;20190;-65
2022/09/28 03:32:40;;;;;;;7.63;1.50;;;8.40;99.90;;;;;;5111884;28;20286;-66
2022/09/28 03:35:08;;;;;;;1.70;1.03;;;8.30;99.90;;;;;;5112366;28;20190;-65
2022/09/28 03:37:33;;;;;;;1.83;0.97;;;8.40;99.90;;;;;;5112080;28;20258;-65
2022/09/28 03:39:59;;;;;;;2.10;1.33;;;8.40;99.90;;;;;;5112300;28;20509;-65
2022/09/28 03:42:25;;;;;;;1.63;0.93;;;8.40;99.90;;;;;;5107677;28;21062;-65
2022/09/28 03:44:50;;;;;;;5.70;1.43;;;8.40;99.90;;;;;;5112473;28;20201;-65
2022/09/28 03:47:16;;;;;;;1.93;1.10;;;8.40;99.90;;;;;;5112181;28;20191;-65
2022/09/28 03:49:43;;;;;;;5.23;1.37;;;8.30;99.90;;;;;;5112229;28;20180;-66
2022/09/28 03:52:08;;;;;;;4.60;1.33;;;8.40;99.90;;;;;;5111533;28;20464;-65
2022/09/28 03:54:34;;;;;;;2.07;0.90;;;8.40;99.90;;;;;;5115756;28;20512;-65
2022/09/28 03:57:00;;;;;;;1.20;0.60;;;8.40;99.90;;;;;;5116184;28;20263;-66
2022/09/28 03:59:25;;;;;;;11.93;1.53;;;8.40;99.90;;;;;;5115692;28;20580;-65
2022/09/28 04:01:51;;;;;;;1.67;0.80;;;8.40;99.90;;;;;;5115822;28;20188;-66
2022/09/28 04:04:17;;;;;;;2.67;0.70;;;8.40;99.90;;;;;;5115881;28;20203;-65
2022/09/28 04:06:43;;;;;;;3.80;1.17;;;8.30;99.90;;;;;;5115837;28;20473;-65
2022/09/28 04:09:10;;;;;;;2.00;1.00;;;8.40;99.90;;;;;;5115585;28;20508;-66
2022/09/28 04:11:36;;;;;;;1.73;0.93;;;8.30;99.90;;;;;;5115551;28;20210;-65
2022/09/28 04:14:01;;;;;;;1.87;0.90;;;8.40;99.90;;;;;;5113059;28;20413;-65
2022/09/28 04:16:27;;;;;;;4.40;1.13;;;8.40;99.90;;;;;;5113356;28;20203;-65
2022/09/28 04:18:52;;;;;;;1.70;0.80;;;8.30;99.90;;;;;;5115668;28;20175;-65
2022/09/28 04:21:19;;;;;;;4.00;0.90;;;8.30;99.90;;;;;;5115519;28;20320;-66
2022/09/28 04:23:45;;;;;;;4.60;1.03;;;8.30;99.90;;;;;;5115270;28;20184;-66
2022/09/28 04:26:20;;;;;;;1.30;0.60;;;8.40;99.90;;;;;;5114175;28;20442;-66
2022/09/28 04:31:49;;;;;;;25.63;1.13;;;8.30;99.90;;;;;;5114988;28;20472;-63
2022/09/28 04:34:17;;;;;;;3.60;1.43;;;8.40;99.90;;;;;;5115359;27;20531;-63
2022/09/28 04:36:44;;;;;;;1.23;0.60;;;8.40;99.90;;;;;;5115231;27;20417;-63
2022/09/28 04:39:14;;;;;;;3.00;0.80;;;8.40;99.90;;;;;;5115405;28;20418;-64
2022/09/28 04:41:40;;;;;;;5.23;1.27;;;8.40;99.90;;;;;;5114770;28;20428;-63
2022/09/28 04:44:06;;;;;;;1.50;0.90;;;8.40;99.90;;;;;;5114531;28;20426;-63
2022/09/28 04:46:32;;;;;;;3.13;1.50;;;8.50;99.90;;;;;;5115376;28;20482;-63
2022/09/28 04:48:58;;;;;;;1.70;1.23;;;8.40;99.90;;;;;;5115139;28;20421;-64
2022/09/28 04:51:23;;;;;;;2.60;0.97;;;8.40;99.90;;;;;;5114755;28;20323;-63
2022/09/28 04:53:49;;;;;;;10.97;3.00;;;8.40;99.90;;;;;;5114651;28;20182;-63
2022/09/28 04:56:16;;;;;;;19.27;7.53;;;8.50;99.90;;;;;;5114800;28;20176;-63
2022/09/28 04:58:42;;;;;;;2.23;1.07;;;8.40;99.90;;;;;;5114616;28;20510;-63
2022/09/28 05:01:11;;;;;;;5.00;1.00;;;8.50;99.90;;;;;;5115076;28;20508;-63
2022/09/28 05:03:37;;;;;;;1.33;0.67;;;8.40;99.90;;;;;;5114004;28;20184;-63
2022/09/28 05:06:03;;;;;;;1.60;0.80;;;8.40;99.90;;;;;;5115025;28;20787;-64
2022/09/28 05:08:29;;;;;;;3.10;0.80;;;8.40;99.90;;;;;;5101398;28;20504;-63
2022/09/28 05:10:59;;;;;;;1.90;0.83;;;8.30;99.90;;;;;;5114327;28;20544;-64
2022/09/28 05:13:26;;;;;;;3.57;1.90;;;8.30;99.90;;;;;;5113574;28;20184;-64
2022/09/28 05:15:54;;;;;;;5.00;1.60;;;8.20;99.90;;;;;;5114751;28;20450;-64
2022/09/28 05:18:20;;;;;;;2.03;0.60;;;8.20;99.90;;;;;;5114285;28;20413;-64
2022/09/28 05:20:45;;;;;;;4.90;0.93;;;8.20;99.90;;;;;;5114367;28;20433;-64
2022/09/28 05:23:12;;;;;;;2.53;0.90;;;8.10;99.90;;;;;;5113977;28;20289;-63
2022/09/28 05:25:38;;;;;;;1.10;0.40;;;8.00;99.90;;;;;;5113095;28;20253;-63
2022/09/28 05:28:05;;;;;;;1.30;0.60;;;8.10;99.90;;;;;;5113844;28;20430;-63
2022/09/28 05:30:31;;;;;;;1.67;1.10;;;8.00;99.90;;;;;;5114618;28;20457;-63
2022/09/28 05:32:56;;;;;;;1.47;0.67;;;8.00;99.90;;;;;;5113903;28;20413;-63
2022/09/28 05:35:22;;;;;;;2.80;0.87;;;8.00;99.90;;;;;;5114466;28;20674;-64
2022/09/28 05:37:48;;;;;;;1.10;0.53;;;7.90;99.90;;;;;;5108660;28;20209;-64
2022/09/28 05:40:14;;;;;;;1.40;0.70;;;7.90;99.90;;;;;;5114098;28;20182;-64
2022/09/28 05:42:40;;;;;;;4.70;1.00;;;8.00;99.90;;;;;;5105317;28;20532;-64
2022/09/28 05:45:07;;;;;;;2.00;0.70;;;8.00;99.90;;;;;;5114201;28;20489;-65
2022/09/28 05:47:37;;;;;;;2.57;0.80;;;8.00;99.90;;;;;;5114126;28;20168;-65
2022/09/28 05:50:03;;;;;;;1.30;0.60;;;8.00;99.90;;;;;;5112386;28;20470;-64
2022/09/28 05:52:29;;;;;;;1.30;0.50;;;8.00;99.90;;;;;;5111706;28;20446;-64
2022/09/28 05:54:54;;;;;;;1.20;0.53;;;8.00;99.90;;;;;;5104227;28;20460;-64
2022/09/28 05:57:20;;;;;;;1.73;0.83;;;7.90;99.90;;;;;;5104510;28;20180;-64
2022/09/28 05:59:46;;;;;;;1.30;0.70;;;7.90;99.90;;;;;;5110213;28;20176;-65
2022/09/28 06:02:11;;;;;;;1.90;0.83;;;7.90;99.90;;;;;;5113372;28;20176;-64
2022/09/28 06:04:37;;;;;;;1.63;0.80;;;7.90;99.90;;;;;;5113702;28;20192;-64
2022/09/28 06:07:02;;;;;;;8.60;0.70;;;8.00;99.90;;;;;;5113179;28;20629;-64
2022/09/28 06:09:29;;;;;;;1.30;0.67;;;7.90;99.90;;;;;;5112746;28;20548;-64
2022/09/28 06:11:58;;;;;;;2.67;1.13;;;8.00;99.90;;;;;;5110940;28;20203;-64
2022/09/28 06:14:24;;;;;;;1.80;0.90;;;8.00;99.90;;;;;;5112475;28;20925;-65
2022/09/28 06:16:50;;;;;;;1.40;0.87;;;8.00;99.90;;;;;;5110966;28;20418;-65
2022/09/28 06:19:16;;;;;;;1.77;0.90;;;7.90;99.90;;;;;;5108260;28;20732;-65
2022/09/28 06:21:41;;;;;;;1.20;0.57;;;8.00;99.90;;;;;;5099483;28;20540;-65
2022/09/28 06:24:07;;;;;;;1.83;0.87;;;7.90;99.90;;;;;;5112630;28;20206;-65
2022/09/28 06:26:32;;;;;;;1.70;0.60;;;7.90;99.90;;;;;;5112346;28;20192;-65
2022/09/28 06:28:59;;;;;;;2.57;1.03;;;8.00;99.90;;;;;;5112168;28;20184;-65
2022/09/28 06:31:25;;;;;;;2.57;0.90;;;8.00;99.90;;;;;;5113021;28;20220;-65
2022/09/28 06:33:51;;;;;;;3.27;1.27;;;8.00;99.90;;;;;;5112628;28;20902;-65
2022/09/28 06:36:18;;;;;;;1.67;0.70;;;8.00;99.90;;;;;;5113382;28;20962;-65
2022/09/28 06:38:44;;;;;;;2.07;0.80;;;8.10;99.90;;;;;;5107995;28;20426;-65
2022/09/28 06:41:10;;;;;;;1.20;0.50;;;8.10;99.90;;;;;;5113008;28;20421;-65
2022/09/28 06:43:38;;;;;;;1.10;0.50;;;8.20;99.90;;;;;;5111964;28;20417;-65
2022/09/28 06:46:04;;;;;;;1.70;0.80;;;8.20;99.90;;;;;;5112784;28;20422;-65
2022/09/28 06:48:32;;;;;;;2.20;0.67;;;8.20;99.90;;;;;;5112748;27;20413;-65
2022/09/28 06:50:58;;;;;;;2.17;0.80;;;8.20;99.90;;;;;;5113005;28;20489;-65
2022/09/28 06:53:23;;;;;;;2.40;1.13;;;8.30;99.90;;;;;;5112306;28;20414;-65
2022/09/28 06:55:50;;;;;;;2.10;0.70;;;8.30;99.90;;;;;;5112519;28;20455;-65
2022/09/28 06:58:18;;;;;;;1.40;0.70;;;8.40;99.90;;;;;;5112498;28;20678;-65
2022/09/28 07:00:44;;;;;;;1.80;0.80;;;8.40;99.90;;;;;;5109068;28;20433;-66
2022/09/28 07:03:16;;;;;;;1.90;0.70;;;8.50;99.90;;;;;;5103280;28;20418;-66
2022/09/28 07:05:47;;;;;;;1.30;0.60;;;8.50;99.90;;;;;;5100935;28;20418;-66
2022/09/28 07:08:14;;;;;;;1.67;0.60;;;8.50;99.90;;;;;;5102459;28;20417;-66
2022/09/28 07:10:45;;;;;;;1.30;0.60;;;8.50;99.90;;;;;;5103423;28;20492;-66
2022/09/28 07:13:14;;;;;;;1.30;0.60;;;8.60;99.90;;;;;;5111933;28;20404;-66
2022/09/28 07:15:42;;;;;;;9.03;1.00;;;8.70;99.90;;;;;;5106980;28;20456;-66
2022/09/28 07:18:10;;;;;;;1.47;0.80;;;8.70;99.90;;;;;;5105062;28;20422;-65
2022/09/28 07:20:36;;;;;;;1.30;0.77;;;8.80;99.90;;;;;;5104641;28;20448;-65
2022/09/28 07:23:04;;;;;;;4.93;0.93;;;8.90;99.90;;;;;;5101539;28;20441;-65
2022/09/28 07:25:31;;;;;;;1.10;0.50;;;8.90;99.90;;;;;;5101009;28;20501;-65
2022/09/28 07:28:00;;;;;;;2.60;1.00;;;8.90;99.90;;;;;;5109692;28;20501;-66
2022/09/28 07:30:27;;;;;;;1.97;0.63;;;9.00;99.90;;;;;;5104009;28;20922;-67
2022/09/28 07:32:54;;;;;;;1.40;0.70;;;9.00;99.90;;;;;;5114905;28;20419;-65
2022/09/28 07:35:21;;;;;;;10.83;0.60;;;9.00;99.90;;;;;;5114767;28;20409;-65
2022/09/28 07:37:46;;;;;;;1.33;0.60;;;9.00;99.90;;;;;;5109537;28;20443;-66
2022/09/28 07:43:03;;;;;;;1.20;0.60;;;8.90;99.90;;;;;;5099964;28;20217;-66
2022/09/28 07:45:30;;;;;;;3.90;0.97;;;8.80;99.90;;;;;;5108211;28;20413;-66
2022/09/28 07:47:55;;;;;;;1.40;0.83;;;8.80;99.90;;;;;;5116256;28;20910;-66
2022/09/28 07:50:21;;;;;;;1.50;0.70;;;8.70;99.90;;;;;;5116249;28;20444;-66
2022/09/28 07:52:48;;;;;;;1.70;0.63;;;8.60;99.90;;;;;;5111180;28;20203;-66
2022/09/28 07:55:14;;;;;;;1.20;0.63;;;8.60;99.90;;;;;;5111590;28;20176;-66
2022/09/28 07:57:39;;;;;;;1.60;0.70;;;8.60;99.90;;;;;;5106442;28;20451;-66
2022/09/28 08:00:07;;;;;;;2.13;0.80;;;8.60;99.90;;;;;;5106378;28;20199;-66
2022/09/28 08:02:34;;;;;;;2.07;1.00;;;8.60;99.90;;;;;;5107426;28;20180;-66
2022/09/28 08:05:00;;;;;;;2.60;1.00;;;8.70;99.90;;;;;;5103860;28;20900;-66
2022/09/28 08:07:26;;;;;;;1.53;0.70;;;8.70;99.90;;;;;;5109972;27;20463;-66
2022/09/28 08:09:52;;;;;;;4.60;1.30;;;8.60;99.90;;;;;;5108228;28;20425;-66
2022/09/28 08:12:18;;;;;;;5.93;1.20;;;8.60;99.90;;;;;;5113874;28;20207;-66
2022/09/28 08:14:45;;;;;;;1.60;0.73;;;8.70;99.90;;;;;;5113554;28;20674;-66
2022/09/28 08:17:10;;;;;;;2.03;0.80;;;8.70;99.90;;;;;;5114124;28;20413;-66
2022/09/28 08:22:21;;;;;;;8.13;1.13;;;8.80;99.90;;;;;;5102614;28;20276;-66
2022/09/28 08:24:47;;;;;;;4.93;1.40;;;9.00;99.90;;;;;;5102913;28;20476;-66
2022/09/28 08:27:15;;;;;;;4.57;1.07;;;9.10;99.90;;;;;;5111520;28;20433;-66
2022/09/28 08:29:41;;;;;;;1.43;0.77;;;9.20;99.90;;;;;;5113683;27;20937;-66
2022/09/28 08:32:08;;;;;;;5.33;1.30;;;9.20;99.90;;;;;;5113287;28;20467;-66
2022/09/28 08:34:39;;;;;;;3.40;1.00;;;9.20;99.90;;;;;;5113801;28;20470;-67
2022/09/28 08:37:07;;;;;;;3.20;0.80;;;9.30;99.90;;;;;;5108722;28;20413;-66
2022/09/28 08:39:33;;;;;;;32.97;8.37;;;9.30;99.90;;;;;;5099783;28;20416;-66
2022/09/28 08:42:39;;;;;;;12.63;3.80;;;9.40;99.90;;;;;;5112608;27;20421;-66
2022/09/28 08:45:13;;;;;;;3.50;1.53;;;9.50;99.90;;;;;;5105354;28;20413;-67
2022/09/28 08:51:05;;;;;;;1.70;0.80;;;9.70;99.90;;;;;;5113298;28;20489;-67
2022/09/28 08:53:41;;;;;;;5.30;1.80;;;9.80;99.90;;;;;;5112959;28;20433;-67
2022/09/28 08:56:13;;;;;;;7.13;2.63;;;9.90;99.90;;;;;;5113599;28;20800;-67
2022/09/28 08:58:43;;;;;;;15.73;3.40;;;9.90;99.90;;;;;;5113045;28;20453;-67
2022/09/28 09:01:15;;;;;;;7.87;3.50;;;10.00;99.90;;;;;;5113424;28;20421;-67
2022/09/28 09:03:43;;;;;;;12.40;3.87;;;9.90;99.90;;;;;;5103062;28;20464;-66
2022/09/28 09:06:21;;;;;;;7.10;1.43;;;9.90;99.90;;;;;;5113147;28;20513;-67
2022/09/28 09:09:03;;;;;;;2.37;1.00;;;9.90;99.90;;;;;;5112139;28;20894;-66
2022/09/28 09:12:10;;;;;;;4.93;1.43;;;9.90;99.90;;;;;;5112201;28;20465;-67
2022/09/28 09:14:49;;;;;;;3.27;1.37;;;9.90;99.90;;;;;;5070120;28;20438;-67
2022/09/28 09:17:23;;;;;;;3.30;1.10;;;9.90;99.90;;;;;;5113870;28;20425;-67
2022/09/28 09:20:12;;;;;;;1.33;0.80;;;10.00;99.90;;;;;;5114361;28;20417;-67
2022/09/28 09:22:57;;;;;;;1.40;0.80;;;9.90;99.90;;;;;;5113664;28;20563;-66
2022/09/28 09:25:30;;;;;;;5.33;0.87;;;10.00;99.90;;;;;;5113332;28;20900;-64
2022/09/28 09:28:35;;;;;;;2.47;1.20;;;10.00;99.90;;;;;;5114000;28;20424;-65
2022/09/28 09:31:03;;;;;;;1.73;1.03;;;10.10;99.90;;;;;;5114125;28;20543;-64
2022/09/28 09:33:42;;;;;;;1.60;0.87;;;10.10;99.90;;;;;;5113373;28;20414;-64
2022/09/28 09:36:52;;;;;;;2.77;0.90;;;10.20;99.90;;;;;;5114001;28;20425;-65
2022/09/28 09:39:27;;;;;;;2.33;1.00;;;10.20;99.90;;;;;;5112937;28;20405;-64
2022/09/28 09:42:17;;;;;;;5.23;1.17;;;10.40;99.90;;;;;;5113019;28;20405;-65
2022/09/28 09:45:12;;;;;;;2.90;0.73;;;10.40;99.90;;;;;;5107325;28;20805;-65
2022/09/28 09:47:48;;;;;;;2.03;0.70;;;10.50;99.90;;;;;;5078194;28;20524;-65
2022/09/28 09:50:34;;;;;;;2.10;0.90;;;10.60;99.90;;;;;;5112355;28;20436;-65
2022/09/28 09:53:08;;;;;;;5.93;1.00;;;10.70;99.90;;;;;;5113513;28;20440;-65
2022/09/28 09:55:49;;;;;;;6.17;0.80;;;10.70;99.90;;;;;;5113463;28;20478;-65
2022/09/28 09:58:45;;;;;;;3.63;1.10;;;10.70;99.90;;;;;;5113449;28;20778;-65
2022/09/28 10:01:14;;;;;;;1.30;0.60;;;10.70;99.90;;;;;;5110514;28;20470;-66
2022/09/28 10:03:47;;;;;;;3.10;0.77;;;10.80;99.90;;;;;;5113113;28;20418;-66
2022/09/28 10:06:36;;;;;;;3.77;0.73;;;10.80;99.90;;;;;;5113711;27;20974;-66
2022/09/28 10:09:24;;;;;;;7.70;3.27;;;10.80;99.90;;;;;;5099526;28;20767;-66
2022/09/28 10:11:51;;;;;;;9.77;4.47;;;10.90;99.90;;;;;;5112223;28;20473;-66
2022/09/28 10:14:20;;;;;;;3.43;1.07;;;10.90;99.90;;;;;;5108373;28;20907;-67
2022/09/28 10:16:47;;;;;;;2.43;0.80;;;11.10;99.90;;;;;;5099255;28;20414;-66
2022/09/28 10:19:14;;;;;;;6.03;1.00;;;11.10;99.90;;;;;;5112897;28;20406;-66
2022/09/28 10:21:41;;;;;;;3.53;1.70;;;10.90;99.90;;;;;;5109123;28;20489;-66
2022/09/28 10:24:17;;;;;;;3.80;2.30;;;11.10;99.90;;;;;;5103392;28;20421;-66
2022/09/28 10:26:49;;;;;;;3.73;0.97;;;11.00;99.90;;;;;;5100605;28;20504;-66
2022/09/28 10:29:25;;;;;;;2.23;0.83;;;11.10;99.90;;;;;;5100360;28;20931;-66
2022/09/28 10:31:53;;;;;;;3.07;0.90;;;11.10;99.90;;;;;;5105074;28;20509;-66
2022/09/28 10:34:26;;;;;;;3.17;1.23;;;11.20;99.90;;;;;;5112449;28;20797;-66
2022/09/28 10:36:54;;;;;;;9.40;1.83;;;11.30;99.90;;;;;;5104278;28;20421;-66
2022/09/28 10:39:39;;;;;;;1.80;0.80;;;11.30;99.90;;;;;;5112295;28;20449;-66
2022/09/28 10:42:11;;;;;;;2.23;1.20;;;11.30;99.90;;;;;;5111208;28;20425;-66
2022/09/28 10:44:59;;;;;;;5.53;1.27;;;11.30;99.90;;;;;;5111061;28;20429;-64
2022/09/28 10:47:29;;;;;;;1.60;0.80;;;11.30;99.90;;;;;;5109940;28;20449;-65
2022/09/28 10:49:55;;;;;;;5.43;1.10;;;11.30;99.90;;;;;;5111761;28;20434;-66
2022/09/28 10:52:44;;;;;;;1.67;0.97;;;11.40;99.90;;;;;;5110712;28;20491;-65
2022/09/28 10:55:31;;;;;;;3.03;1.50;;;11.50;99.90;;;;;;5111344;28;20435;-65
2022/09/28 10:57:58;;;;;;;1.57;0.60;;;11.50;99.90;;;;;;5111422;28;20933;-65
2022/09/28 11:00:33;;;;;;;2.40;1.00;;;11.50;99.90;;;;;;5109821;28;21180;-65
2022/09/28 11:03:01;;;;;;;9.43;0.83;;;11.50;99.90;;;;;;5110016;28;20412;-65
2022/09/28 11:05:27;;;;;;;4.80;1.43;;;11.60;99.90;;;;;;5110608;28;20862;-65
2022/09/28 11:07:56;;;;;;;7.03;1.07;;;11.60;99.90;;;;;;5097422;28;20464;-65
2022/09/28 11:10:31;;;;;;;2.03;0.83;;;11.70;99.90;;;;;;5104193;28;20184;-66
2022/09/28 11:12:58;;;;;;;1.93;1.00;;;11.60;99.90;;;;;;5110700;28;20447;-66
2022/09/28 11:15:31;;;;;;;3.60;0.90;;;11.70;99.90;;;;;;5111667;28;20493;-66
2022/09/28 11:18:24;;;;;;;6.40;1.67;;;11.70;99.90;;;;;;5112605;28;20895;-66
2022/09/28 11:20:50;;;;;;;1.67;0.90;;;11.70;99.90;;;;;;5109428;28;20822;-66
2022/09/28 11:23:29;;;;;;;1.80;0.80;;;11.80;99.90;;;;;;5112288;28;20532;-65
2022/09/28 11:26:03;;;;;;;4.70;0.60;;;11.90;99.90;;;;;;5111718;28;20425;-66
2022/09/28 11:28:36;;;;;;;1.87;0.80;;;11.90;99.90;;;;;;5112308;28;20417;-65
2022/09/28 11:31:03;;;;;;;1.60;0.87;;;11.90;99.90;;;;;;5112474;28;20595;-65
2022/09/28 11:33:38;;;;;;;4.03;0.90;;;12.00;99.90;;;;;;5111841;28;20444;-65
2022/09/28 11:36:12;;;;;;;1.40;0.60;;;11.90;99.90;;;;;;5112507;28;20420;-66
2022/09/28 11:38:59;;;;;;;1.50;0.90;;;11.80;99.90;;;;;;5107166;28;20474;-65
2022/09/28 11:41:52;;;;;;;1.50;0.60;;;11.90;99.90;;;;;;5101005;28;20417;-65
2022/09/28 11:44:17;;;;;;;3.60;0.83;;;11.90;99.90;;;;;;5111828;28;20421;-65
2022/09/28 11:47:16;;;;;;;1.70;0.70;;;11.70;99.90;;;;;;5112515;28;20421;-65
2022/09/28 11:50:01;;;;;;;1.60;0.60;;;11.80;99.90;;;;;;5102748;28;20262;-65
2022/09/28 11:52:35;;;;;;;3.50;0.73;;;11.80;99.60;;;;;;5111469;28;20467;-65
2022/09/28 11:55:11;;;;;;;2.60;0.90;;;11.70;99.90;;;;;;5112000;28;20413;-65
2022/09/28 11:57:41;;;;;;;3.20;1.43;;;11.70;99.90;;;;;;5105893;28;20438;-65
2022/09/28 12:00:14;;;;;;;1.30;0.57;;;11.80;99.90;;;;;;5100354;28;20432;-65
2022/09/28 12:03:03;;;;;;;2.43;0.83;;;11.70;99.90;;;;;;5109941;28;20421;-66
2022/09/28 12:05:46;;;;;;;5.17;0.80;;;11.70;99.90;;;;;;5109239;28;20425;-65
2022/09/28 12:08:24;;;;;;;6.83;0.70;;;11.90;99.90;;;;;;5098700;28;20423;-65
2022/09/28 12:11:15;;;;;;;3.30;0.73;;;11.90;99.90;;;;;;5099976;28;20463;-65
2022/09/28 12:13:48;;;;;;;10.10;1.43;;;11.90;99.90;;;;;;5096950;28;20883;-65
2022/09/28 12:16:20;;;;;;;3.30;0.90;;;12.00;99.90;;;;;;5107156;28;20767;-65
2022/09/28 12:19:04;;;;;;;1.50;0.50;;;12.00;99.80;;;;;;5113690;28;20891;-65
2022/09/28 12:21:43;;;;;;;2.80;0.77;;;12.10;99.90;;;;;;5111402;28;20520;-65
2022/09/28 12:24:28;;;;;;;1.40;0.60;;;12.10;99.40;;;;;;5113689;28;20436;-65
2022/09/28 12:27:05;;;;;;;1.90;0.90;;;12.00;99.90;;;;;;5113277;28;20413;-65
2022/09/28 12:29:39;;;;;;;1.67;0.60;;;12.20;99.00;;;;;;5113604;28;20938;-65
2022/09/28 12:32:11;;;;;;;2.40;0.90;;;12.10;98.60;;;;;;5113483;28;20475;-65
2022/09/28 12:34:39;;;;;;;1.30;0.50;;;12.10;98.90;;;;;;5113847;28;21071;-65
2022/09/28 12:37:07;;;;;;;3.20;0.70;;;12.10;98.60;;;;;;5113819;28;20508;-65
2022/09/28 12:40:18;;;;;;;4.50;0.70;;;11.90;98.10;;;;;;5113809;28;20418;-65
2022/09/28 12:43:02;;;;;;;1.20;0.50;;;11.80;98.80;;;;;;5113075;28;20453;-65
2022/09/28 12:45:30;;;;;;;2.63;0.70;;;11.80;98.90;;;;;;5113065;28;20453;-65
2022/09/28 12:48:32;;;;;;;3.60;0.80;;;11.80;98.90;;;;;;5113586;28;20444;-65
2022/09/28 12:51:21;;;;;;;2.47;1.23;;;11.80;98.20;;;;;;5100561;28;20461;-66
2022/09/28 12:54:07;;;;;;;7.23;1.53;;;11.70;98.10;;;;;;5113136;28;20445;-65
2022/09/28 12:56:48;;;;;;;1.63;0.70;;;11.70;99.70;;;;;;5071323;28;20429;-65
2022/09/28 12:59:31;;;;;;;1.80;0.83;;;11.80;98.60;;;;;;5107024;28;20409;-65
2022/09/28 13:02:02;;;;;;;2.63;1.23;;;11.70;99.40;;;;;;5112929;28;20545;-65
2022/09/28 13:04:46;;;;;;;3.53;1.10;;;11.80;98.80;;;;;;5113226;28;20974;-65
2022/09/28 13:07:27;;;;;;;3.30;1.17;;;11.80;98.10;;;;;;5100757;28;20883;-66
2022/09/28 13:10:05;;;;;;;2.53;1.07;;;12.00;98.50;;;;;;5113226;28;20429;-65
2022/09/28 13:12:43;;;;;;;2.77;0.83;;;12.10;98.10;;;;;;5109548;28;21162;-65
2022/09/28 13:15:27;;;;;;;2.50;1.23;;;12.00;98.00;;;;;;5110307;28;20514;-65
2022/09/28 13:18:26;;;;;;;6.60;1.07;;;12.00;97.60;;;;;;5113235;28;20432;-65
2022/09/28 13:20:52;;;;;;;1.60;0.70;;;12.00;97.20;;;;;;5112927;28;20531;-65
2022/09/28 13:23:32;;;;;;;1.70;0.60;;;11.90;97.70;;;;;;5099163;28;21016;-67
2022/09/28 13:26:06;;;;;;;1.40;0.70;;;11.90;98.00;;;;;;5111900;28;20183;-65
2022/09/28 13:28:33;;;;;;;3.30;0.90;;;11.90;98.40;;;;;;5112688;28;20427;-65
2022/09/28 13:31:01;;;;;;;4.80;0.73;;;11.90;98.50;;;;;;5112882;28;20461;-67